Time;durP1;ratioP1;P1;durP2;ratioP2;P2;SDS_P1;SDS_P2;PMS_P1;PMS_P2;Temp;Humidity;BMP_temperature;BMP_pressure;BME280_temperature;BME280_humidity;BME280_pressure;Samples;Min_cycle;Max_cycle;Signal;HPM_P1;HPM_P2
2023/12/25 00:02:08;;;;;;;13.63;3.65;;;12.10;99.90;;;;;;5031979;28;20076;-75
2023/12/25 00:04:34;;;;;;;9.35;2.65;;;12.10;99.90;;;;;;5038687;28;20047;-75
2023/12/25 00:06:59;;;;;;;10.88;2.90;;;12.10;99.90;;;;;;5034171;28;20033;-75
2023/12/25 00:09:25;;;;;;;10.65;2.90;;;12.20;99.90;;;;;;5017909;28;20114;-74
2023/12/25 00:11:51;;;;;;;13.77;3.22;;;12.10;99.90;;;;;;5011061;28;20104;-74
2023/12/25 00:14:16;;;;;;;13.48;3.55;;;12.10;99.90;;;;;;5026675;28;20052;-74
2023/12/25 00:16:42;;;;;;;10.48;3.28;;;12.10;99.90;;;;;;5039673;28;20041;-75
2023/12/25 00:19:08;;;;;;;9.23;3.15;;;12.10;99.90;;;;;;5037155;28;20037;-75
2023/12/25 00:21:34;;;;;;;11.07;2.83;;;12.10;99.90;;;;;;5023078;28;20095;-75
2023/12/25 00:23:59;;;;;;;14.07;3.03;;;12.20;99.90;;;;;;5034486;28;20097;-75
2023/12/25 00:26:25;;;;;;;12.80;3.17;;;12.10;99.90;;;;;;5032126;28;20046;-76
2023/12/25 00:28:51;;;;;;;13.05;2.95;;;12.10;99.90;;;;;;5031812;28;20431;-74
2023/12/25 00:31:16;;;;;;;10.60;2.67;;;12.20;99.90;;;;;;5031719;28;20054;-75
2023/12/25 00:33:43;;;;;;;9.13;2.97;;;12.20;99.90;;;;;;5026570;28;20045;-76
2023/12/25 00:36:10;;;;;;;11.60;3.03;;;12.20;99.90;;;;;;5035991;28;20132;-75
2023/12/25 00:38:36;;;;;;;12.02;3.13;;;12.20;99.90;;;;;;5014102;28;20136;-76
2023/12/25 00:41:02;;;;;;;9.05;2.67;;;12.20;99.90;;;;;;5039000;28;20053;-75
2023/12/25 00:43:28;;;;;;;11.32;2.90;;;12.10;99.90;;;;;;5036528;28;20045;-75
2023/12/25 00:45:53;;;;;;;9.75;3.00;;;12.10;99.90;;;;;;5036657;28;20047;-75
2023/12/25 00:48:19;;;;;;;10.45;2.67;;;12.10;99.90;;;;;;5008209;28;20046;-75
2023/12/25 00:50:45;;;;;;;8.55;2.42;;;12.10;99.90;;;;;;5033602;28;20125;-74
2023/12/25 00:53:10;;;;;;;10.43;2.55;;;12.10;99.90;;;;;;5032123;28;20042;-75
2023/12/25 00:55:36;;;;;;;10.32;2.50;;;12.10;99.90;;;;;;5038888;28;20100;-76
2023/12/25 00:58:02;;;;;;;11.40;2.45;;;12.10;99.90;;;;;;5032387;28;20065;-75
2023/12/25 01:00:27;;;;;;;9.68;2.72;;;12.10;99.90;;;;;;5025905;28;20038;-75
2023/12/25 01:02:53;;;;;;;10.13;2.63;;;12.00;99.90;;;;;;5037416;28;20040;-76
2023/12/25 01:05:18;;;;;;;8.23;2.70;;;12.00;99.90;;;;;;5038760;28;20097;-75
2023/12/25 01:07:44;;;;;;;9.85;2.60;;;12.00;99.90;;;;;;5035835;28;20673;-76
2023/12/25 01:10:10;;;;;;;10.07;2.38;;;12.00;99.90;;;;;;5029575;28;20398;-74
2023/12/25 01:12:35;;;;;;;6.95;2.22;;;11.90;99.90;;;;;;5030440;28;20046;-75
2023/12/25 01:15:01;;;;;;;9.98;2.42;;;11.90;99.90;;;;;;5037210;28;20037;-74
2023/12/25 01:17:27;;;;;;;7.00;2.30;;;11.90;99.90;;;;;;5036113;28;20049;-75
2023/12/25 01:19:53;;;;;;;9.80;2.78;;;11.90;99.90;;;;;;5020870;28;20041;-75
2023/12/25 01:22:19;;;;;;;13.30;3.15;;;11.90;99.90;;;;;;5015208;28;20215;-75
2023/12/25 01:24:44;;;;;;;13.27;2.65;;;11.80;99.90;;;;;;5037181;28;20053;-75
2023/12/25 01:27:10;;;;;;;10.25;2.85;;;11.70;99.90;;;;;;5037239;28;20049;-75
2023/12/25 01:29:36;;;;;;;14.35;3.35;;;11.70;99.90;;;;;;5029276;28;20048;-76
2023/12/25 01:32:02;;;;;;;11.85;3.50;;;11.70;99.90;;;;;;5033900;28;20091;-75
2023/12/25 01:34:27;;;;;;;10.80;2.45;;;11.70;99.90;;;;;;5033870;28;20048;-75
2023/12/25 01:36:53;;;;;;;8.77;2.10;;;11.70;99.90;;;;;;5017897;28;20049;-75
2023/12/25 01:39:19;;;;;;;9.77;2.33;;;11.70;99.90;;;;;;5016013;28;20049;-75
2023/12/25 01:41:45;;;;;;;7.95;2.10;;;11.70;99.90;;;;;;5024845;28;20053;-74
2023/12/25 01:44:12;;;;;;;10.27;2.42;;;11.70;99.90;;;;;;5034959;28;20037;-75
2023/12/25 01:46:38;;;;;;;8.50;2.47;;;11.70;99.90;;;;;;5026419;28;20049;-75
2023/12/25 01:49:05;;;;;;;12.30;2.67;;;11.70;99.90;;;;;;5017703;28;20105;-75
2023/12/25 01:51:32;;;;;;;7.57;2.72;;;11.70;99.90;;;;;;5028019;28;20077;-75
2023/12/25 01:53:58;;;;;;;6.78;2.22;;;11.70;99.90;;;;;;5035040;28;20052;-74
2023/12/25 01:56:24;;;;;;;8.40;2.22;;;11.70;99.90;;;;;;5027761;28;20049;-75
2023/12/25 01:58:49;;;;;;;10.98;2.50;;;11.60;99.90;;;;;;5021598;28;20102;-74
2023/12/25 02:01:15;;;;;;;6.43;2.30;;;11.60;99.90;;;;;;5031543;28;20086;-75
2023/12/25 02:03:41;;;;;;;9.88;2.20;;;11.60;99.90;;;;;;5035436;28;20041;-75
2023/12/25 02:06:08;;;;;;;11.95;3.00;;;11.60;99.90;;;;;;5019687;28;20084;-75
2023/12/25 02:08:34;;;;;;;4.70;2.33;;;11.60;99.90;;;;;;5039823;28;20483;-74
2023/12/25 02:11:03;;;;;;;11.20;2.25;;;11.70;99.90;;;;;;5021912;28;20053;-75
2023/12/25 02:13:29;;;;;;;4.97;2.00;;;11.70;99.90;;;;;;5036204;28;20053;-75
2023/12/25 02:15:55;;;;;;;9.93;3.17;;;11.70;99.90;;;;;;5037443;28;20038;-74
2023/12/25 02:18:22;;;;;;;4.13;2.08;;;11.70;99.90;;;;;;5034939;28;20128;-75
2023/12/25 02:20:48;;;;;;;7.70;2.17;;;11.70;99.90;;;;;;5034074;28;20053;-75
2023/12/25 02:23:16;;;;;;;8.13;2.17;;;11.70;99.90;;;;;;5032897;28;20073;-74
2023/12/25 02:25:53;;;;;;;9.55;2.28;;;11.60;99.90;;;;;;5009461;28;20061;-74
2023/12/25 02:28:19;;;;;;;11.32;2.47;;;11.60;99.90;;;;;;5034125;28;20384;-75
2023/12/25 02:30:45;;;;;;;11.18;2.38;;;11.60;99.90;;;;;;5032532;28;20136;-75
2023/12/25 02:33:11;;;;;;;6.88;2.25;;;11.50;99.90;;;;;;5036322;28;20044;-75
2023/12/25 02:35:37;;;;;;;9.65;2.20;;;11.50;99.90;;;;;;5036342;28;20049;-75
2023/12/25 02:38:02;;;;;;;9.95;2.10;;;11.50;99.90;;;;;;5031908;28;20044;-74
2023/12/25 02:40:28;;;;;;;9.50;3.92;;;11.50;99.90;;;;;;5016092;28;20576;-75
2023/12/25 02:42:54;;;;;;;4.60;1.80;;;11.50;99.90;;;;;;5038029;28;20072;-74
2023/12/25 02:45:19;;;;;;;6.03;1.90;;;11.60;99.90;;;;;;5022518;28;20507;-75
2023/12/25 02:47:45;;;;;;;6.43;1.75;;;11.60;99.90;;;;;;5040384;28;20056;-75
2023/12/25 02:50:11;;;;;;;9.00;2.30;;;11.60;99.90;;;;;;5034970;28;20068;-75
2023/12/25 02:52:37;;;;;;;6.13;1.90;;;11.70;99.90;;;;;;5037259;28;20056;-75
2023/12/25 02:55:02;;;;;;;8.40;2.92;;;11.60;99.90;;;;;;5030129;28;20053;-74
2023/12/25 02:57:28;;;;;;;7.35;1.88;;;11.60;99.90;;;;;;5032086;28;20460;-75
2023/12/25 02:59:54;;;;;;;6.47;1.85;;;11.60;99.90;;;;;;5031470;28;20099;-75
2023/12/25 03:02:20;;;;;;;6.55;1.92;;;11.60;99.90;;;;;;5031912;28;20050;-75
2023/12/25 03:04:45;;;;;;;6.90;1.85;;;11.70;99.90;;;;;;5035775;28;20053;-74
2023/12/25 03:07:11;;;;;;;7.68;1.88;;;11.60;99.90;;;;;;5033431;28;20164;-73
2023/12/25 03:09:37;;;;;;;6.05;1.80;;;11.60;99.90;;;;;;5035511;28;20041;-75
2023/12/25 03:12:03;;;;;;;5.55;1.83;;;11.50;99.90;;;;;;5033010;28;20046;-75
2023/12/25 03:14:28;;;;;;;9.50;2.00;;;11.60;99.90;;;;;;5040964;28;20068;-75
2023/12/25 03:16:54;;;;;;;9.60;2.47;;;11.60;99.90;;;;;;5034807;28;20044;-75
2023/12/25 03:19:20;;;;;;;7.97;1.73;;;11.50;99.90;;;;;;5030700;28;20049;-75
2023/12/25 03:21:45;;;;;;;5.93;1.95;;;11.50;99.90;;;;;;5033462;28;20046;-75
2023/12/25 03:24:11;;;;;;;7.45;1.90;;;11.50;99.90;;;;;;5022304;28;20041;-75
2023/12/25 03:26:37;;;;;;;9.50;2.22;;;11.50;99.90;;;;;;5036015;28;20057;-75
2023/12/25 03:29:03;;;;;;;8.35;1.80;;;11.50;99.90;;;;;;5031733;28;20093;-74
2023/12/25 03:31:29;;;;;;;9.02;1.88;;;11.50;99.90;;;;;;5036187;28;20111;-74
2023/12/25 03:33:54;;;;;;;6.82;2.08;;;11.50;99.90;;;;;;5036771;28;20855;-74
2023/12/25 03:36:20;;;;;;;5.72;1.90;;;11.50;99.90;;;;;;5041339;28;20095;-74
2023/12/25 03:38:46;;;;;;;6.43;1.90;;;11.50;99.90;;;;;;5013245;28;20048;-74
2023/12/25 03:41:11;;;;;;;4.93;2.00;;;11.50;99.90;;;;;;5034850;28;20487;-75
2023/12/25 03:43:37;;;;;;;10.07;1.95;;;11.50;99.90;;;;;;5037514;28;20117;-75
2023/12/25 03:46:03;;;;;;;6.07;1.73;;;11.50;99.90;;;;;;5041291;28;20067;-74
2023/12/25 03:48:29;;;;;;;5.32;1.85;;;11.50;99.90;;;;;;5020938;28;20056;-75
2023/12/25 03:50:54;;;;;;;7.93;1.95;;;11.50;99.90;;;;;;5041803;28;20049;-75
2023/12/25 03:53:20;;;;;;;9.18;2.00;;;11.50;99.90;;;;;;5031325;28;20364;-74
2023/12/25 03:55:46;;;;;;;8.50;2.03;;;11.50;99.90;;;;;;5031402;28;20463;-75
2023/12/25 03:58:11;;;;;;;9.77;2.67;;;11.50;99.90;;;;;;5035683;28;20037;-75
2023/12/25 04:00:38;;;;;;;7.03;1.85;;;11.50;99.90;;;;;;5036283;28;20037;-75
2023/12/25 04:03:03;;;;;;;7.03;2.13;;;11.50;99.90;;;;;;5036844;28;20048;-75
2023/12/25 04:05:30;;;;;;;6.90;2.03;;;11.40;99.90;;;;;;5038259;28;20042;-75
2023/12/25 04:07:56;;;;;;;7.95;2.10;;;11.50;99.90;;;;;;5034874;28;20037;-75
2023/12/25 04:10:22;;;;;;;9.02;2.45;;;11.50;99.90;;;;;;5013197;28;20045;-75
2023/12/25 04:12:47;;;;;;;7.53;2.03;;;11.50;99.90;;;;;;5036874;28;20088;-75
2023/12/25 04:15:13;;;;;;;10.35;2.10;;;11.50;99.90;;;;;;5037408;28;20494;-75
2023/12/25 04:17:39;;;;;;;10.48;2.45;;;11.50;99.90;;;;;;5038444;28;20093;-75
2023/12/25 04:20:05;;;;;;;5.88;1.98;;;11.50;99.90;;;;;;5030804;28;21061;-74
2023/12/25 04:22:31;;;;;;;8.52;1.88;;;11.40;99.90;;;;;;5032374;28;20102;-74
2023/12/25 04:24:56;;;;;;;7.93;1.73;;;11.40;99.90;;;;;;5019509;28;20263;-74
2023/12/25 04:27:22;;;;;;;5.72;1.80;;;11.40;99.90;;;;;;5037965;28;20056;-74
2023/12/25 04:29:48;;;;;;;6.60;2.10;;;11.50;99.90;;;;;;5039542;28;20072;-74
2023/12/25 04:32:14;;;;;;;11.27;2.40;;;11.50;99.90;;;;;;5035889;28;20041;-74
2023/12/25 04:34:39;;;;;;;7.43;2.08;;;11.50;99.90;;;;;;5036399;28;20128;-75
2023/12/25 04:37:05;;;;;;;7.93;1.90;;;11.40;99.90;;;;;;5038366;28;20041;-75
2023/12/25 04:39:31;;;;;;;8.18;2.15;;;11.40;99.90;;;;;;5030882;28;20045;-75
2023/12/25 04:41:56;;;;;;;6.88;1.80;;;11.40;99.90;;;;;;5035640;28;20103;-74
2023/12/25 04:44:22;;;;;;;8.52;1.98;;;11.40;99.90;;;;;;5035908;28;20076;-74
2023/12/25 04:46:48;;;;;;;7.80;2.17;;;11.40;99.90;;;;;;5012335;28;20510;-75
2023/12/25 04:49:14;;;;;;;7.57;2.08;;;11.30;99.90;;;;;;5035733;28;20061;-74
2023/12/25 04:51:39;;;;;;;7.43;1.77;;;11.40;99.90;;;;;;5034410;28;20064;-74
2023/12/25 04:54:05;;;;;;;7.32;2.60;;;11.40;99.90;;;;;;5037738;28;20041;-73
2023/12/25 04:56:31;;;;;;;7.32;2.17;;;11.40;99.90;;;;;;5028949;28;20085;-74
2023/12/25 04:58:57;;;;;;;5.97;1.92;;;11.40;99.90;;;;;;5039003;28;20512;-74
2023/12/25 05:01:23;;;;;;;9.45;2.22;;;11.30;99.90;;;;;;5036087;28;20105;-74
2023/12/25 05:03:49;;;;;;;10.45;2.30;;;11.30;99.90;;;;;;5032492;28;20052;-74
2023/12/25 05:06:15;;;;;;;7.82;1.90;;;11.30;99.90;;;;;;5032181;28;20382;-74
2023/12/25 05:08:40;;;;;;;10.25;2.00;;;11.30;99.90;;;;;;5030912;28;20079;-75
2023/12/25 05:11:06;;;;;;;5.03;1.50;;;11.40;99.90;;;;;;5031980;28;20055;-75
2023/12/25 05:13:32;;;;;;;7.93;2.22;;;11.30;99.90;;;;;;5016147;28;20061;-74
2023/12/25 05:15:57;;;;;;;9.80;2.38;;;11.40;99.90;;;;;;5039755;28;20213;-74
2023/12/25 05:18:24;;;;;;;8.02;2.22;;;11.30;99.90;;;;;;5035889;28;20092;-74
2023/12/25 05:20:50;;;;;;;8.52;2.00;;;11.30;99.90;;;;;;5038884;28;20095;-75
2023/12/25 05:23:15;;;;;;;12.82;2.40;;;11.30;99.90;;;;;;5016241;28;20046;-74
2023/12/25 05:25:41;;;;;;;11.50;1.70;;;11.30;99.90;;;;;;5018789;28;20041;-73
2023/12/25 05:28:07;;;;;;;9.05;2.25;;;11.30;99.90;;;;;;5037667;28;20037;-74
2023/12/25 05:30:33;;;;;;;7.85;1.98;;;11.30;99.90;;;;;;5035625;28;20076;-74
2023/12/25 05:32:58;;;;;;;7.43;2.08;;;11.30;99.90;;;;;;5038334;28;20580;-74
2023/12/25 05:35:24;;;;;;;5.95;2.13;;;11.30;99.90;;;;;;5036989;28;20069;-73
2023/12/25 05:37:50;;;;;;;6.55;1.77;;;11.30;99.90;;;;;;5030597;28;20048;-74
2023/12/25 05:40:16;;;;;;;10.35;2.10;;;11.40;99.90;;;;;;5036050;28;20064;-74
2023/12/25 05:42:41;;;;;;;7.30;1.80;;;11.40;99.90;;;;;;5037357;28;20040;-74
2023/12/25 05:45:08;;;;;;;8.15;2.20;;;11.40;99.90;;;;;;5036780;28;20064;-74
2023/12/25 05:47:33;;;;;;;6.38;2.00;;;11.40;99.90;;;;;;5015375;28;20042;-75
2023/12/25 05:49:59;;;;;;;11.38;2.28;;;11.40;99.90;;;;;;5037823;28;20046;-75
2023/12/25 05:52:25;;;;;;;9.27;2.05;;;11.30;99.90;;;;;;5033577;28;20045;-74
2023/12/25 05:54:51;;;;;;;6.13;1.70;;;11.40;99.90;;;;;;5035638;28;20068;-74
2023/12/25 05:57:17;;;;;;;10.55;1.83;;;11.40;99.90;;;;;;5031958;28;20546;-74
2023/12/25 05:59:43;;;;;;;5.82;1.85;;;11.30;99.90;;;;;;5025555;28;20038;-72
2023/12/25 06:02:10;;;;;;;4.88;1.80;;;11.40;99.90;;;;;;5031613;28;20107;-75
2023/12/25 06:04:36;;;;;;;6.35;1.98;;;11.40;99.90;;;;;;5034455;28;20123;-74
2023/12/25 06:07:02;;;;;;;5.32;2.22;;;11.40;99.90;;;;;;5034065;28;20073;-75
2023/12/25 06:09:28;;;;;;;6.35;2.10;;;11.40;99.90;;;;;;5026087;28;20049;-74
2023/12/25 06:11:54;;;;;;;10.32;2.85;;;11.40;99.90;;;;;;5034080;28;20044;-74
2023/12/25 06:14:19;;;;;;;7.30;2.03;;;11.30;99.90;;;;;;5034284;28;20052;-74
2023/12/25 06:16:45;;;;;;;10.18;2.00;;;11.40;99.90;;;;;;5025757;28;20403;-74
2023/12/25 06:19:11;;;;;;;7.05;1.67;;;11.30;99.90;;;;;;5031847;28;20100;-74
2023/12/25 06:21:36;;;;;;;6.40;1.67;;;11.30;99.90;;;;;;5032677;28;20041;-75
2023/12/25 06:24:02;;;;;;;7.07;1.95;;;11.30;99.90;;;;;;5007792;28;20072;-74
2023/12/25 06:26:28;;;;;;;7.75;2.03;;;11.30;99.90;;;;;;5035762;28;20037;-74
2023/12/25 06:28:53;;;;;;;10.70;2.50;;;11.20;99.90;;;;;;5039002;28;20037;-74
2023/12/25 06:31:19;;;;;;;10.30;2.40;;;11.20;99.90;;;;;;5040671;28;20041;-75
2023/12/25 06:33:45;;;;;;;11.65;2.60;;;11.10;99.90;;;;;;5033989;28;20371;-75
2023/12/25 06:36:10;;;;;;;8.13;2.55;;;11.10;99.90;;;;;;5033723;28;20045;-74
2023/12/25 06:38:36;;;;;;;6.88;1.88;;;11.10;99.90;;;;;;5038024;28;20073;-75
2023/12/25 06:41:03;;;;;;;6.95;2.38;;;11.00;99.90;;;;;;5035955;28;20041;-75
2023/12/25 06:43:29;;;;;;;6.18;1.83;;;11.00;99.90;;;;;;5028290;28;20143;-75
2023/12/25 06:45:55;;;;;;;9.52;2.53;;;11.00;99.90;;;;;;5038340;28;20042;-75
2023/12/25 06:48:20;;;;;;;12.60;2.58;;;11.00;99.90;;;;;;5039034;28;20420;-75
2023/12/25 06:50:48;;;;;;;9.38;2.50;;;10.90;99.90;;;;;;5035317;28;20150;-75
2023/12/25 06:53:13;;;;;;;9.27;2.22;;;10.90;99.90;;;;;;5039413;28;20075;-75
2023/12/25 06:55:39;;;;;;;11.27;2.30;;;10.90;99.90;;;;;;5039316;28;20065;-75
2023/12/25 06:58:05;;;;;;;10.57;2.10;;;10.90;99.90;;;;;;5035292;28;20038;-75
2023/12/25 07:00:30;;;;;;;11.68;2.42;;;10.90;99.90;;;;;;5021685;28;20037;-74
2023/12/25 07:02:56;;;;;;;8.68;2.30;;;10.90;99.90;;;;;;5042196;28;20095;-75
2023/12/25 07:05:23;;;;;;;6.95;1.90;;;10.90;99.90;;;;;;5019695;28;20080;-75
2023/12/25 07:07:48;;;;;;;9.30;2.13;;;10.80;99.90;;;;;;5034757;28;20045;-75
2023/12/25 07:10:14;;;;;;;9.90;1.83;;;10.80;99.90;;;;;;5036033;28;20041;-75
2023/12/25 07:12:40;;;;;;;6.43;1.70;;;10.80;99.90;;;;;;5036835;28;20045;-75
2023/12/25 07:15:06;;;;;;;8.88;2.58;;;10.80;99.90;;;;;;5040378;28;20044;-75
2023/12/25 07:17:32;;;;;;;11.65;2.20;;;10.90;99.90;;;;;;5019179;28;20552;-74
2023/12/25 07:19:58;;;;;;;7.32;2.03;;;10.90;99.90;;;;;;5035366;28;20053;-75
2023/12/25 07:22:24;;;;;;;8.80;2.10;;;10.80;99.90;;;;;;5017689;28;20049;-75
2023/12/25 07:24:50;;;;;;;8.70;2.45;;;10.80;99.90;;;;;;5035532;28;20073;-75
2023/12/25 07:27:16;;;;;;;9.23;2.22;;;10.80;99.90;;;;;;5034821;28;20050;-75
2023/12/25 07:29:42;;;;;;;9.52;2.30;;;10.70;99.90;;;;;;5018392;28;20041;-75
2023/12/25 07:32:07;;;;;;;9.00;2.17;;;10.80;99.90;;;;;;5017667;28;20080;-74
2023/12/25 07:34:34;;;;;;;14.52;2.40;;;10.70;99.90;;;;;;5034952;28;20029;-74
2023/12/25 07:37:01;;;;;;;11.48;2.72;;;10.60;99.90;;;;;;5038670;28;20060;-74
2023/12/25 07:39:27;;;;;;;8.48;2.47;;;10.60;99.90;;;;;;5015854;28;20056;-72
2023/12/25 07:41:55;;;;;;;10.90;2.30;;;10.60;99.90;;;;;;5019715;28;20045;-74
2023/12/25 07:44:21;;;;;;;9.07;2.05;;;10.60;99.90;;;;;;5036477;28;20052;-74
2023/12/25 07:46:47;;;;;;;7.80;2.07;;;10.50;99.90;;;;;;5016886;28;20052;-74
2023/12/25 07:49:13;;;;;;;12.10;2.50;;;10.50;99.90;;;;;;5019181;28;20101;-73
2023/12/25 07:51:38;;;;;;;7.73;2.27;;;10.50;99.90;;;;;;5039980;28;20570;-74
2023/12/25 07:54:04;;;;;;;9.03;2.57;;;10.50;99.90;;;;;;5036253;28;20136;-74
2023/12/25 07:56:30;;;;;;;8.95;2.45;;;10.50;99.90;;;;;;5036900;28;20133;-76
2023/12/25 07:58:57;;;;;;;11.60;2.58;;;10.40;99.90;;;;;;5034188;28;20052;-79
2023/12/25 08:01:23;;;;;;;10.57;2.20;;;10.40;99.90;;;;;;5033911;28;20045;-73
2023/12/25 08:03:52;;;;;;;7.50;2.10;;;10.50;99.90;;;;;;5039855;28;20050;-72
2023/12/25 08:06:18;;;;;;;9.17;2.67;;;10.40;99.90;;;;;;5036090;28;20049;-74
2023/12/25 08:08:44;;;;;;;9.83;2.60;;;10.50;99.90;;;;;;5037280;28;20049;-74
2023/12/25 08:11:16;;;;;;;9.80;2.80;;;10.40;99.90;;;;;;5032042;28;20539;-73
2023/12/25 08:13:43;;;;;;;8.87;1.93;;;10.50;99.90;;;;;;5000200;28;20045;-73
2023/12/25 08:16:09;;;;;;;8.07;2.40;;;10.40;99.90;;;;;;5037810;28;20132;-73
2023/12/25 08:18:34;;;;;;;9.02;2.08;;;10.40;99.90;;;;;;5040412;28;20037;-73
2023/12/25 08:21:00;;;;;;;8.50;2.38;;;10.40;99.90;;;;;;5030422;28;20037;-74
2023/12/25 08:23:26;;;;;;;11.47;2.80;;;10.40;99.90;;;;;;5031572;28;20037;-73
2023/12/25 08:25:51;;;;;;;9.35;2.50;;;10.30;99.90;;;;;;5019780;28;20042;-73
2023/12/25 08:28:17;;;;;;;7.57;2.38;;;10.40;99.90;;;;;;5037487;28;20433;-73
2023/12/25 08:30:43;;;;;;;10.55;2.30;;;10.30;99.90;;;;;;5028267;28;20049;-72
2023/12/25 08:33:09;;;;;;;9.13;2.17;;;10.40;99.90;;;;;;5015117;28;20116;-72
2023/12/25 08:35:35;;;;;;;10.87;2.13;;;10.40;99.90;;;;;;5017219;28;20064;-73
2023/12/25 08:38:01;;;;;;;11.07;2.40;;;10.40;99.90;;;;;;5018038;28;20091;-71
2023/12/25 08:40:27;;;;;;;10.87;2.43;;;10.40;99.90;;;;;;5041446;28;20049;-71
2023/12/25 08:42:53;;;;;;;16.65;2.42;;;10.40;99.90;;;;;;5038931;28;20124;-71
2023/12/25 08:45:19;;;;;;;9.83;2.53;;;10.40;99.90;;;;;;5049079;28;20112;-71
2023/12/25 08:47:45;;;;;;;12.77;2.92;;;10.40;99.90;;;;;;5032577;28;20052;-71
2023/12/25 08:50:10;;;;;;;10.30;2.40;;;10.40;99.90;;;;;;5036787;28;20037;-70
2023/12/25 08:52:36;;;;;;;10.25;2.40;;;10.40;99.90;;;;;;5037966;28;20124;-71
2023/12/25 08:55:02;;;;;;;10.23;2.90;;;10.40;99.90;;;;;;5020074;28;20124;-71
2023/12/25 08:57:30;;;;;;;11.30;2.40;;;10.30;99.90;;;;;;5016524;28;20049;-70
2023/12/25 08:59:55;;;;;;;8.18;2.78;;;10.40;99.90;;;;;;5020496;28;21198;-71
2023/12/25 09:02:21;;;;;;;12.33;2.47;;;10.40;99.90;;;;;;5016974;28;20041;-74
2023/12/25 09:04:50;;;;;;;7.50;2.30;;;10.30;99.90;;;;;;5022266;28;20534;-74
2023/12/25 09:07:16;;;;;;;12.95;2.90;;;10.30;99.90;;;;;;5027970;28;20033;-74
2023/12/25 09:09:42;;;;;;;7.80;2.60;;;10.30;99.90;;;;;;5030285;28;20143;-74
2023/12/25 09:12:08;;;;;;;10.30;2.70;;;10.40;99.90;;;;;;5027265;28;20060;-75
2023/12/25 09:14:33;;;;;;;12.52;2.97;;;10.30;99.90;;;;;;5038103;28;20086;-74
2023/12/25 09:16:59;;;;;;;13.63;2.73;;;10.30;99.90;;;;;;5020354;28;20420;-74
2023/12/25 09:19:25;;;;;;;14.23;3.43;;;10.30;99.90;;;;;;5038417;28;20046;-75
2023/12/25 09:21:50;;;;;;;8.15;2.58;;;10.40;99.90;;;;;;5040283;28;20037;-74
2023/12/25 09:24:17;;;;;;;11.07;2.93;;;10.30;99.90;;;;;;5042157;28;20048;-75
2023/12/25 09:26:43;;;;;;;10.67;2.50;;;10.30;99.90;;;;;;5035029;28;20098;-74
2023/12/25 09:29:11;;;;;;;7.40;2.40;;;10.30;99.90;;;;;;5036065;28;20083;-74
2023/12/25 09:31:37;;;;;;;16.65;2.97;;;10.30;99.90;;;;;;5042668;28;20042;-75
2023/12/25 09:34:02;;;;;;;14.13;3.13;;;10.30;99.90;;;;;;5040106;28;20041;-74
2023/12/25 09:36:29;;;;;;;9.95;2.80;;;10.30;99.90;;;;;;5027858;28;20083;-75
2023/12/25 09:38:55;;;;;;;9.43;2.80;;;10.30;99.90;;;;;;5047770;28;20550;-75
2023/12/25 09:41:24;;;;;;;15.55;2.70;;;10.30;99.90;;;;;;5022460;28;20046;-74
2023/12/25 09:43:54;;;;;;;8.20;3.17;;;10.30;99.90;;;;;;5036645;28;20089;-74
2023/12/25 09:46:20;;;;;;;12.57;3.77;;;10.40;99.90;;;;;;5038657;28;20055;-74
2023/12/25 09:48:48;;;;;;;13.23;2.73;;;10.40;99.90;;;;;;5036613;28;20081;-75
2023/12/25 09:51:17;;;;;;;12.70;3.40;;;10.50;99.90;;;;;;5042993;28;20076;-74
2023/12/25 09:53:44;;;;;;;17.57;3.30;;;10.50;99.90;;;;;;5053114;28;20053;-74
2023/12/25 09:56:12;;;;;;;13.45;3.00;;;10.60;99.90;;;;;;5011643;28;20057;-75
2023/12/25 09:58:40;;;;;;;13.60;2.85;;;10.60;99.90;;;;;;5044050;28;20069;-77
2023/12/25 10:01:06;;;;;;;12.93;2.77;;;10.60;99.90;;;;;;5041642;28;20370;-74
2023/12/25 10:03:34;;;;;;;13.23;3.08;;;10.70;99.90;;;;;;5036899;28;20045;-75
2023/12/25 10:06:00;;;;;;;14.65;2.88;;;10.70;99.90;;;;;;5045251;28;20045;-75
2023/12/25 10:08:27;;;;;;;12.00;2.75;;;10.70;99.90;;;;;;5044785;28;20041;-75
2023/12/25 10:10:56;;;;;;;13.32;3.10;;;10.80;99.90;;;;;;5020962;28;20049;-75
2023/12/25 10:13:28;;;;;;;11.10;2.80;;;10.80;99.90;;;;;;5034837;28;20050;-75
2023/12/25 10:15:54;;;;;;;15.63;3.05;;;10.80;99.90;;;;;;5039298;28;20048;-74
2023/12/25 10:18:20;;;;;;;11.80;2.90;;;10.80;99.90;;;;;;5020637;28;20037;-75
2023/12/25 10:20:57;;;;;;;12.15;3.13;;;10.80;99.90;;;;;;5011062;28;20065;-74
2023/12/25 10:23:30;;;;;;;13.98;4.13;;;10.80;99.90;;;;;;5016871;28;20139;-74
2023/12/25 10:25:58;;;;;;;10.93;2.90;;;10.90;99.90;;;;;;5018800;28;20042;-75
2023/12/25 10:28:29;;;;;;;16.95;3.08;;;10.80;99.90;;;;;;5048104;28;20041;-74
2023/12/25 10:30:59;;;;;;;11.82;2.67;;;10.90;99.90;;;;;;5048396;28;20484;-74
2023/12/25 10:33:25;;;;;;;10.70;2.78;;;10.90;99.90;;;;;;5041281;28;20042;-74
2023/12/25 10:36:09;;;;;;;9.95;2.88;;;10.80;99.90;;;;;;5043271;28;20041;-74
2023/12/25 10:38:42;;;;;;;12.55;3.60;;;10.90;99.90;;;;;;5043283;28;20058;-74
2023/12/25 10:41:27;;;;;;;11.45;3.13;;;10.80;99.90;;;;;;5014864;28;20038;-75
2023/12/25 10:44:02;;;;;;;13.90;3.53;;;10.80;99.90;;;;;;5042512;28;20098;-75
2023/12/25 10:46:36;;;;;;;15.50;3.00;;;10.80;99.90;;;;;;5041953;28;20049;-74
2023/12/25 10:49:08;;;;;;;11.85;3.20;;;10.80;99.90;;;;;;5008785;28;20048;-74
2023/12/25 10:51:49;;;;;;;10.00;3.00;;;10.70;99.90;;;;;;5033337;28;20088;-75
2023/12/25 10:54:16;;;;;;;15.13;3.07;;;10.70;99.90;;;;;;5032391;28;20060;-74
2023/12/25 10:56:44;;;;;;;12.10;3.20;;;10.70;99.90;;;;;;5034557;28;20526;-74
2023/12/25 10:59:19;;;;;;;12.45;2.90;;;10.70;99.90;;;;;;5043553;28;20049;-74
2023/12/25 11:01:48;;;;;;;10.88;2.95;;;10.70;99.90;;;;;;5047513;28;20056;-74
2023/12/25 11:04:18;;;;;;;15.05;3.80;;;10.70;99.90;;;;;;5025169;28;20121;-74
2023/12/25 11:06:44;;;;;;;11.45;3.08;;;10.70;99.90;;;;;;5012724;28;20127;-74
2023/12/25 11:09:12;;;;;;;11.23;2.80;;;10.70;99.90;;;;;;5039963;28;20079;-74
2023/12/25 11:11:38;;;;;;;7.35;2.35;;;10.60;99.90;;;;;;5053164;28;20049;-74
2023/12/25 11:14:06;;;;;;;14.02;3.15;;;10.70;99.90;;;;;;4995438;28;20058;-75
2023/12/25 11:16:33;;;;;;;13.27;3.13;;;10.60;99.90;;;;;;5026237;28;20433;-74
2023/12/25 11:19:00;;;;;;;8.48;2.40;;;10.60;99.90;;;;;;5028960;28;20077;-74
2023/12/25 11:21:30;;;;;;;13.75;3.50;;;10.60;99.90;;;;;;5030985;28;20041;-74
2023/12/25 11:23:59;;;;;;;9.25;3.08;;;10.60;99.90;;;;;;5028415;28;20049;-74
2023/12/25 11:26:27;;;;;;;15.52;3.42;;;10.60;99.90;;;;;;5028197;28;20432;-74
2023/12/25 11:28:58;;;;;;;12.75;2.88;;;10.60;99.90;;;;;;5013935;28;20034;-74
2023/12/25 11:31:26;;;;;;;10.68;2.50;;;10.60;99.90;;;;;;5027731;28;20045;-75
2023/12/25 11:33:52;;;;;;;10.68;2.60;;;10.50;99.90;;;;;;5027474;28;20049;-74
2023/12/25 11:36:18;;;;;;;10.32;2.90;;;10.60;99.90;;;;;;5025573;28;20077;-74
2023/12/25 11:38:53;;;;;;;8.65;2.95;;;10.60;99.90;;;;;;5020067;28;20054;-75
2023/12/25 11:41:19;;;;;;;9.13;2.75;;;10.60;99.90;;;;;;5023399;28;20129;-74
2023/12/25 11:43:48;;;;;;;10.07;2.70;;;10.60;99.90;;;;;;5014444;28;20084;-74
2023/12/25 11:46:16;;;;;;;13.65;3.22;;;10.60;99.90;;;;;;5013673;28;20045;-74
2023/12/25 11:48:47;;;;;;;11.07;2.75;;;10.60;99.90;;;;;;5019077;28;20095;-74
2023/12/25 11:51:26;;;;;;;10.83;3.20;;;10.60;99.90;;;;;;5022501;28;20049;-74
2023/12/25 11:54:01;;;;;;;9.77;2.67;;;10.60;99.90;;;;;;5012739;28;20135;-74
2023/12/25 11:56:31;;;;;;;12.32;2.83;;;10.60;99.90;;;;;;5014543;28;20046;-74
2023/12/25 11:58:57;;;;;;;9.85;2.83;;;10.60;99.90;;;;;;5011572;28;20521;-74
2023/12/25 12:01:22;;;;;;;11.82;2.67;;;10.60;99.90;;;;;;5022868;28;20148;-73
2023/12/25 12:03:51;;;;;;;6.55;2.10;;;10.50;99.90;;;;;;5018993;28;20324;-73
2023/12/25 12:06:18;;;;;;;9.90;2.80;;;10.60;99.90;;;;;;5029029;28;20448;-73
2023/12/25 12:08:44;;;;;;;11.10;2.83;;;10.60;99.90;;;;;;5015407;28;20050;-74
2023/12/25 12:11:11;;;;;;;9.52;2.60;;;10.60;99.90;;;;;;5023071;28;20113;-73
2023/12/25 12:13:37;;;;;;;12.95;2.70;;;10.60;99.90;;;;;;5031254;28;20088;-73
2023/12/25 12:16:05;;;;;;;6.43;2.05;;;10.70;99.90;;;;;;5038142;28;20561;-73
2023/12/25 12:18:30;;;;;;;12.82;2.83;;;10.70;99.90;;;;;;5024642;28;20037;-73
2023/12/25 12:20:56;;;;;;;10.52;2.63;;;10.70;99.90;;;;;;5030890;28;20052;-74
2023/12/25 12:23:22;;;;;;;9.25;2.80;;;10.70;99.90;;;;;;5039296;28;20101;-73
2023/12/25 12:25:48;;;;;;;8.52;2.45;;;10.70;99.90;;;;;;5045275;28;20055;-74
2023/12/25 12:28:17;;;;;;;11.18;2.70;;;10.70;99.90;;;;;;5041921;28;20045;-72
2023/12/25 12:30:43;;;;;;;9.45;2.63;;;10.70;99.90;;;;;;5037867;28;20053;-73
2023/12/25 12:33:10;;;;;;;9.30;2.67;;;10.70;99.90;;;;;;5018903;28;20348;-73
2023/12/25 12:35:36;;;;;;;9.07;2.50;;;10.70;99.90;;;;;;5041791;28;20040;-72
2023/12/25 12:38:05;;;;;;;13.65;2.83;;;10.70;99.90;;;;;;5037118;28;20041;-73
2023/12/25 12:40:31;;;;;;;9.52;2.42;;;10.80;99.90;;;;;;5031648;28;20045;-73